createdAt,value
2018-04-11T00:01:21.143Z,5.50
2018-04-11T00:03:48.882Z,6.13
2018-04-11T00:06:18.170Z,6.47
2018-04-11T00:08:46.389Z,7.20
2018-04-11T00:11:13.835Z,3.80
2018-04-11T00:13:41.280Z,3.53
2018-04-11T00:16:08.732Z,4.30
2018-04-11T00:18:36.941Z,3.23
2018-04-11T00:21:04.384Z,4.40
2018-04-11T00:23:31.846Z,4.73
2018-04-11T00:25:59.291Z,5.37
2018-04-11T00:28:26.744Z,5.13
2018-04-11T00:30:54.187Z,4.10
2018-04-11T00:33:22.457Z,3.40
2018-04-11T00:35:50.658Z,8.17
2018-04-11T00:38:18.109Z,4.20
2018-04-11T00:40:45.553Z,6.03
2018-04-11T00:43:13.772Z,4.77
2018-04-11T00:45:41.211Z,10.13
2018-04-11T00:48:08.655Z,8.53
2018-04-11T00:50:36.105Z,6.63
2018-04-11T00:53:15.272Z,10.07
2018-04-11T00:55:42.720Z,7.40
2018-04-11T00:58:10.189Z,12.03
2018-04-11T01:00:37.630Z,9.40
2018-04-11T01:03:05.064Z,7.47
2018-04-11T01:05:32.525Z,7.13
2018-04-11T01:07:59.977Z,17.40
2018-04-11T01:10:27.542Z,9.83
2018-04-11T01:12:55.040Z,9.43
2018-04-11T01:15:23.199Z,7.33
2018-04-11T01:17:50.639Z,9.00
2018-04-11T01:20:18.088Z,11.93
2018-04-11T01:22:45.535Z,11.43
2018-04-11T01:25:13.757Z,8.47
2018-04-11T01:27:41.199Z,10.87
2018-04-11T01:30:08.652Z,11.03
2018-04-11T01:32:36.115Z,24.30
2018-04-11T01:35:03.554Z,16.30
2018-04-11T01:37:30.995Z,17.23
2018-04-11T01:39:58.460Z,21.63
2018-04-11T01:42:25.954Z,17.03
2018-04-11T01:44:53.395Z,18.13
2018-04-11T01:47:20.841Z,20.17
2018-04-11T01:49:48.283Z,20.40
2018-04-11T01:52:15.730Z,21.80
2018-04-11T01:54:43.185Z,16.97
2018-04-11T01:57:11.399Z,18.83
2018-04-11T01:59:38.850Z,20.80
2018-04-11T02:02:06.304Z,22.73
2018-04-11T02:04:33.748Z,20.97
2018-04-11T02:07:01.211Z,15.57
2018-04-11T02:09:28.647Z,24.07
2018-04-11T02:11:56.875Z,26.37
2018-04-11T02:14:25.084Z,20.40
2018-04-11T02:16:52.538Z,20.87
2018-04-11T02:19:19.990Z,26.20
2018-04-11T02:21:47.464Z,21.70
2018-04-11T02:24:14.932Z,24.77
2018-04-11T02:26:43.149Z,29.20
2018-04-11T02:29:10.596Z,27.77
2018-04-11T02:31:38.050Z,30.63
2018-04-11T02:34:05.512Z,21.27
2018-04-11T02:36:33.036Z,21.83
2018-04-11T02:39:01.248Z,22.63
2018-04-11T02:41:28.794Z,20.97
2018-04-11T02:43:56.239Z,19.50
2018-04-11T02:46:23.676Z,24.30
2018-04-11T02:48:51.895Z,22.50
2018-04-11T02:51:19.416Z,21.23
2018-04-11T02:53:47.710Z,16.77
2018-04-11T02:56:15.148Z,17.10
2018-04-11T02:58:43.369Z,12.53
2018-04-11T03:01:10.815Z,12.43
2018-04-11T03:03:38.268Z,13.70
2018-04-11T03:06:05.709Z,15.87
2018-04-11T03:08:33.163Z,10.70
2018-04-11T03:11:00.606Z,10.13
2018-04-11T03:13:28.850Z,13.33
2018-04-11T03:15:56.293Z,13.10
2018-04-11T03:18:23.737Z,10.53
2018-04-11T03:20:52.283Z,13.83
2018-04-11T03:23:20.502Z,13.97
2018-04-11T03:25:48.946Z,16.43
2018-04-11T03:28:16.387Z,17.27
2018-04-11T03:30:45.634Z,14.43
2018-04-11T03:33:13.086Z,15.70
2018-04-11T03:35:40.556Z,17.20
2018-04-11T03:38:08.003Z,20.00
2018-04-11T03:40:35.521Z,20.97
2018-04-11T03:43:03.738Z,20.50
2018-04-11T03:45:31.194Z,22.37
2018-04-11T03:47:58.645Z,19.23
2018-04-11T03:50:26.093Z,22.67
2018-04-11T03:52:53.570Z,22.87
2018-04-11T03:55:21.030Z,23.87
2018-04-11T03:57:48.480Z,25.00
2018-04-11T04:00:15.940Z,24.83
2018-04-11T04:02:43.396Z,25.77
2018-04-11T04:05:10.852Z,30.33
2018-04-11T04:07:38.345Z,25.60
2018-04-11T04:10:05.839Z,32.33
2018-04-11T04:12:33.395Z,27.73
2018-04-11T04:15:13.431Z,31.00
2018-04-11T04:17:53.422Z,35.97
2018-04-11T04:20:29.806Z,36.83
2018-04-11T04:22:57.257Z,30.97
2018-04-11T04:25:24.713Z,40.20
2018-04-11T04:27:52.244Z,31.40
2018-04-11T04:30:19.715Z,36.13
2018-04-11T04:32:47.151Z,32.07
2018-04-11T04:35:15.369Z,41.70
2018-04-11T04:37:42.814Z,33.27
2018-04-11T04:40:10.347Z,34.90
2018-04-11T04:42:37.794Z,39.37
2018-04-11T04:45:06.177Z,39.20
2018-04-11T04:47:34.391Z,40.60
2018-04-11T04:50:01.846Z,35.07
2018-04-11T04:52:29.343Z,39.87
2018-04-11T04:54:56.853Z,42.87
2018-04-11T04:57:24.291Z,36.30
2018-04-11T04:59:51.783Z,42.30
2018-04-11T05:02:19.234Z,38.50
2018-04-11T05:04:46.704Z,40.73
2018-04-11T05:07:14.155Z,34.20
2018-04-11T05:09:41.608Z,40.77
2018-04-11T05:12:09.053Z,41.70
2018-04-11T05:14:36.531Z,43.40
2018-04-11T05:17:03.988Z,36.13
2018-04-11T05:19:31.443Z,40.13
2018-04-11T05:21:58.904Z,38.50
2018-04-11T05:24:26.424Z,39.80
2018-04-11T05:26:53.878Z,40.60
2018-04-11T05:29:21.334Z,31.17
2018-04-11T05:31:49.572Z,33.47
2018-04-11T05:34:17.010Z,39.30
2018-04-11T05:36:44.482Z,37.30
2018-04-11T05:39:13.085Z,37.57
2018-04-11T05:41:40.600Z,38.43
2018-04-11T05:44:08.051Z,40.23
2018-04-11T05:46:35.592Z,35.93
2018-04-11T05:49:03.048Z,32.23
2018-04-11T05:51:30.491Z,31.40
2018-04-11T05:53:58.777Z,32.77
2018-04-11T05:56:26.224Z,40.70
2018-04-11T05:58:54.451Z,36.67
2018-04-11T06:01:21.922Z,35.00
2018-04-11T06:03:49.380Z,33.83
2018-04-11T06:06:16.839Z,31.57
2018-04-11T06:08:44.353Z,33.03
2018-04-11T06:11:11.798Z,38.43
2018-04-11T06:13:40.075Z,29.07
2018-04-11T06:16:07.515Z,34.63
2018-04-11T06:18:35.759Z,33.50
2018-04-11T06:21:03.209Z,35.13
2018-04-11T06:23:30.661Z,33.60
2018-04-11T06:25:58.181Z,33.00
2018-04-11T06:28:25.634Z,35.27
2018-04-11T06:30:53.975Z,39.37
2018-04-11T06:33:21.433Z,33.20
2018-04-11T06:35:48.891Z,34.57
2018-04-11T06:38:16.333Z,37.83
2018-04-11T06:40:43.839Z,35.20
2018-04-11T06:43:12.051Z,35.27
2018-04-11T06:45:39.503Z,34.93
2018-04-11T06:48:06.991Z,34.00
2018-04-11T06:50:34.500Z,35.80
2018-04-11T06:53:01.959Z,30.77
2018-04-11T06:55:29.418Z,31.13
2018-04-11T06:57:57.222Z,38.40
2018-04-11T07:00:24.677Z,30.83
2018-04-11T07:02:52.125Z,30.90
2018-04-11T07:05:19.580Z,36.97
2018-04-11T07:07:47.037Z,32.47
2018-04-11T07:10:14.473Z,26.23
2018-04-11T07:12:41.976Z,25.90
2018-04-11T07:15:09.444Z,30.73
2018-04-11T07:17:36.887Z,30.80
2018-04-11T07:20:04.349Z,28.37
2018-04-11T07:22:31.835Z,31.03
2018-04-11T07:24:59.272Z,32.00
2018-04-11T07:27:26.721Z,39.53
2018-04-11T07:29:54.167Z,31.63
2018-04-11T07:32:21.634Z,32.27
2018-04-11T07:34:49.081Z,23.33
2018-04-11T07:37:16.534Z,27.30
2018-04-11T07:39:43.992Z,18.10
2018-04-11T07:42:11.512Z,20.87
2018-04-11T07:44:38.964Z,23.90
2018-04-11T07:47:06.412Z,27.27
2018-04-11T07:49:34.647Z,19.97
2018-04-11T07:52:02.122Z,22.70
2018-04-11T07:54:29.626Z,23.00
2018-04-11T07:56:57.032Z,23.30
2018-04-11T07:59:24.484Z,26.63
2018-04-11T08:01:51.980Z,22.27
2018-04-11T08:04:20.204Z,23.93
2018-04-11T08:06:47.658Z,24.40
2018-04-11T08:09:15.195Z,25.07
2018-04-11T08:11:42.640Z,28.60
2018-04-11T08:14:10.119Z,27.30
2018-04-11T08:16:37.607Z,22.43
2018-04-11T08:19:05.069Z,20.70
2018-04-11T08:21:32.519Z,20.27
2018-04-11T08:24:00.448Z,17.23
2018-04-11T08:26:27.897Z,19.80
2018-04-11T08:28:55.382Z,18.97
2018-04-11T08:31:22.824Z,23.97
2018-04-11T08:33:50.958Z,19.57
2018-04-11T08:36:18.387Z,16.50
2018-04-11T08:38:45.350Z,16.43
2018-04-11T08:41:12.847Z,17.70
2018-04-11T08:43:40.290Z,23.23
2018-04-11T08:46:09.499Z,15.57
2018-04-11T08:48:36.957Z,21.03
2018-04-11T08:51:04.412Z,19.20
2018-04-11T08:53:31.851Z,17.57
2018-04-11T08:56:00.077Z,18.47
2018-04-11T08:58:27.531Z,23.80
2018-04-11T09:00:55.000Z,17.47
2018-04-11T09:03:22.468Z,14.70
2018-04-11T09:05:49.934Z,15.53
2018-04-11T09:08:17.367Z,15.83
2018-04-11T09:10:44.850Z,14.30
2018-04-11T09:13:12.350Z,16.40
2018-04-11T09:15:39.835Z,16.20
2018-04-11T09:18:07.287Z,18.80
2018-04-11T09:20:34.759Z,16.80
2018-04-11T09:23:02.196Z,12.30
2018-04-11T09:25:29.661Z,15.50
2018-04-11T09:27:57.116Z,12.53
2018-04-11T09:30:25.396Z,11.27
2018-04-11T09:32:52.847Z,7.37
2018-04-11T09:35:20.284Z,9.93
2018-04-11T09:37:47.733Z,8.03
2018-04-11T09:40:15.968Z,9.43
2018-04-11T09:42:43.423Z,11.63
2018-04-11T09:45:10.877Z,9.80
2018-04-11T09:47:38.332Z,12.67
2018-04-11T09:50:05.840Z,10.00
2018-04-11T09:52:34.055Z,9.13
2018-04-11T09:55:01.492Z,11.73
2018-04-11T09:57:28.982Z,11.00
2018-04-11T09:59:56.443Z,10.60
2018-04-11T10:02:23.956Z,9.00
2018-04-11T10:04:51.412Z,8.20
2018-04-11T10:07:18.891Z,8.27
2018-04-11T10:09:46.349Z,9.83
2018-04-11T10:12:13.787Z,7.27
2018-04-11T10:14:41.251Z,5.40
2018-04-11T10:17:08.696Z,6.63
2018-04-11T10:19:36.141Z,9.40
2018-04-11T10:22:04.359Z,7.03
2018-04-11T10:24:31.804Z,6.13
2018-04-11T10:26:59.256Z,10.33
2018-04-11T10:29:26.707Z,16.83
2018-04-11T10:31:54.169Z,12.30
2018-04-11T10:34:21.616Z,5.30
2018-04-11T10:36:49.052Z,8.00
2018-04-11T10:39:17.271Z,6.80
2018-04-11T10:41:44.724Z,5.47
2018-04-11T10:44:12.180Z,8.03
2018-04-11T10:46:39.637Z,7.37
2018-04-11T10:49:07.097Z,5.30
2018-04-11T10:51:34.541Z,8.03
2018-04-11T10:54:01.986Z,4.47
2018-04-11T10:56:29.433Z,3.53
2018-04-11T10:58:57.641Z,4.00
2018-04-11T11:01:25.090Z,3.70
2018-04-11T11:03:52.533Z,5.40
2018-04-11T11:06:19.985Z,3.47
2018-04-11T11:08:48.198Z,2.10
2018-04-11T11:11:15.639Z,3.20
2018-04-11T11:13:43.105Z,3.50
2018-04-11T11:16:10.541Z,6.37
2018-04-11T11:18:37.980Z,2.90
2018-04-11T11:21:06.193Z,3.23
2018-04-11T11:23:33.646Z,6.23
2018-04-11T11:26:01.093Z,3.43
2018-04-11T11:28:28.538Z,2.97
2018-04-11T11:30:55.986Z,3.67
2018-04-11T11:33:24.199Z,2.40
2018-04-11T11:35:51.641Z,3.50
2018-04-11T11:38:19.080Z,3.00
2018-04-11T11:40:46.544Z,2.60
2018-04-11T11:43:14.771Z,4.33
2018-04-11T11:45:42.229Z,2.57
2018-04-11T11:48:09.670Z,1.80
2018-04-11T11:50:37.147Z,2.67
2018-04-11T11:53:05.004Z,2.30
2018-04-11T11:55:32.455Z,2.40
2018-04-11T11:57:59.899Z,1.80
2018-04-11T12:00:27.334Z,2.50
2018-04-11T12:02:54.792Z,4.43
2018-04-11T12:05:22.245Z,2.73
2018-04-11T12:07:49.695Z,3.23
2018-04-11T12:10:17.902Z,2.30
2018-04-11T12:12:45.365Z,5.50
2018-04-11T12:15:12.814Z,3.20
2018-04-11T12:17:40.251Z,1.47
2018-04-11T12:20:07.776Z,2.17
2018-04-11T12:22:35.222Z,3.90
2018-04-11T12:25:02.683Z,2.40
2018-04-11T12:27:30.152Z,2.33
2018-04-11T12:29:58.366Z,6.53
2018-04-11T12:32:25.847Z,2.40
2018-04-11T12:34:53.388Z,1.80
2018-04-11T12:37:20.869Z,1.97
2018-04-11T12:39:48.356Z,2.33
2018-04-11T12:42:15.797Z,2.40
2018-04-11T12:44:43.255Z,5.30
2018-04-11T12:47:10.695Z,4.53
2018-04-11T12:49:38.149Z,3.27
2018-04-11T12:52:05.606Z,8.20
2018-04-11T12:54:33.060Z,2.23
2018-04-11T12:57:00.511Z,1.00
2018-04-11T12:59:27.966Z,3.67
2018-04-11T13:01:55.435Z,4.57
2018-04-11T13:04:22.866Z,2.43
2018-04-11T13:06:50.315Z,2.27
2018-04-11T13:09:17.772Z,1.77
2018-04-11T13:11:45.217Z,3.03
2018-04-11T13:14:13.431Z,1.93
2018-04-11T13:16:40.939Z,2.20
2018-04-11T13:19:09.160Z,2.20
2018-04-11T13:21:36.609Z,1.93
2018-04-11T13:24:04.069Z,1.63
2018-04-11T13:26:31.526Z,1.70
2018-04-11T13:28:58.963Z,3.40
2018-04-11T13:31:26.398Z,3.70
2018-04-11T13:33:53.836Z,2.63
2018-04-11T13:36:21.291Z,4.70
2018-04-11T13:38:48.783Z,2.70
2018-04-11T13:41:17.081Z,2.50
2018-04-11T13:43:44.529Z,2.03
2018-04-11T13:46:12.034Z,2.40
2018-04-11T13:48:39.596Z,3.37
2018-04-11T13:51:07.032Z,3.63
2018-04-11T13:53:34.541Z,3.43
2018-04-11T13:56:02.055Z,3.23
2018-04-11T13:58:29.508Z,2.50
2018-04-11T14:00:57.007Z,3.83
2018-04-11T14:03:24.427Z,2.30
2018-04-11T14:05:51.967Z,2.03
2018-04-11T14:08:19.440Z,2.40
2018-04-11T14:10:46.839Z,5.43
2018-04-11T14:13:14.314Z,2.07
2018-04-11T14:15:42.543Z,4.03
2018-04-11T14:18:10.099Z,1.60
2018-04-11T14:20:37.553Z,1.63
2018-04-11T14:23:05.162Z,3.87
2018-04-11T14:25:33.375Z,5.43
2018-04-11T14:28:00.899Z,2.90
2018-04-11T14:30:29.109Z,4.80
2018-04-11T14:32:56.558Z,4.37
2018-04-11T14:35:24.023Z,5.13
2018-04-11T14:37:51.529Z,8.70
2018-04-11T14:40:18.974Z,2.60
2018-04-11T14:42:46.501Z,1.97
2018-04-11T14:45:13.932Z,1.67
2018-04-11T14:47:41.377Z,1.10
2018-04-11T14:50:09.585Z,3.53
2018-04-11T14:52:37.034Z,4.60
2018-04-11T14:55:04.588Z,3.20
2018-04-11T14:57:32.042Z,4.53
2018-04-11T14:59:59.536Z,2.70
2018-04-11T15:02:26.977Z,3.80
2018-04-11T15:04:54.446Z,4.83
2018-04-11T15:07:21.960Z,4.50
2018-04-11T15:09:50.157Z,5.70
2018-04-11T15:12:17.614Z,5.07
2018-04-11T15:14:45.046Z,6.80
2018-04-11T15:17:13.269Z,5.63
2018-04-11T15:19:40.782Z,8.63
2018-04-11T15:22:09.067Z,4.40
2018-04-11T15:24:37.334Z,5.70
2018-04-11T15:27:05.652Z,6.40
2018-04-11T15:29:33.204Z,4.97
2018-04-11T15:32:00.656Z,6.07
2018-04-11T15:34:28.154Z,7.63
2018-04-11T15:36:55.582Z,5.27
2018-04-11T15:39:23.089Z,4.53
2018-04-11T15:41:50.871Z,5.00
2018-04-11T15:44:18.383Z,3.83
2018-04-11T15:46:45.868Z,7.23
2018-04-11T15:49:13.421Z,4.40
2018-04-11T15:51:40.955Z,2.70
2018-04-11T15:54:08.389Z,3.27
2018-04-11T15:56:35.816Z,3.63
2018-04-11T15:59:04.030Z,12.00
2018-04-11T16:01:31.480Z,6.50
2018-04-11T16:03:58.927Z,5.10
2018-04-11T16:06:26.377Z,3.30
2018-04-11T16:08:53.826Z,2.93
2018-04-11T16:11:22.036Z,6.87
2018-04-11T16:13:49.540Z,5.40
2018-04-11T16:16:17.764Z,3.90
2018-04-11T16:18:45.288Z,7.50
2018-04-11T16:21:13.516Z,5.47
2018-04-11T16:23:40.969Z,5.77
2018-04-11T16:26:08.423Z,10.33
2018-04-11T16:28:35.883Z,4.27
2018-04-11T16:31:03.392Z,4.10
2018-04-11T16:33:30.784Z,3.57
2018-04-11T16:41:44.625Z,3.63
2018-04-11T16:44:12.959Z,3.80
2018-04-11T16:46:40.466Z,4.27
2018-04-11T16:49:08.037Z,2.60
2018-04-11T16:51:35.479Z,3.87
2018-04-11T16:54:03.705Z,1.90
2018-04-11T16:56:31.147Z,3.20
2018-04-11T16:58:58.601Z,2.40
2018-04-11T17:01:28.123Z,3.03
2018-04-11T17:03:55.592Z,2.40
2018-04-11T17:06:23.044Z,7.50
2018-04-11T17:08:50.534Z,2.10
2018-04-11T17:11:18.742Z,5.17
2018-04-11T17:13:46.199Z,2.30
2018-04-11T17:16:13.646Z,5.10
2018-04-11T17:18:41.143Z,2.90
2018-04-11T17:21:20.299Z,2.23
2018-04-11T17:23:59.672Z,3.27
2018-04-11T17:26:39.153Z,1.97
2018-04-11T17:29:18.439Z,1.60
2018-04-11T17:31:46.648Z,2.50
2018-04-11T17:34:14.308Z,3.27
2018-04-11T17:36:41.771Z,3.73
2018-04-11T17:39:09.203Z,2.90
2018-04-11T17:41:36.704Z,2.70
2018-04-11T17:44:04.162Z,3.70
2018-04-11T17:46:31.605Z,2.90
2018-04-11T17:48:59.051Z,1.70
2018-04-11T17:51:26.628Z,3.63
2018-04-11T17:53:54.035Z,2.33
2018-04-11T17:56:22.243Z,2.90
2018-04-11T17:58:49.674Z,2.20
2018-04-11T18:01:17.125Z,4.67
2018-04-11T18:03:45.332Z,2.07
2018-04-11T18:06:12.766Z,3.43
2018-04-11T18:08:40.431Z,2.63
2018-04-11T18:11:07.934Z,3.40
2018-04-11T18:13:35.394Z,4.13
2018-04-11T18:16:02.905Z,1.90
2018-04-11T18:18:30.292Z,2.50
2018-04-11T18:20:57.743Z,3.70
2018-04-11T18:23:25.192Z,3.80
2018-04-11T18:25:52.626Z,2.07
2018-04-11T18:28:20.130Z,3.57
2018-04-11T18:30:47.572Z,3.07
2018-04-11T18:33:15.015Z,3.03
2018-04-11T18:35:42.448Z,4.13
2018-04-11T18:38:10.653Z,2.30
2018-04-11T18:40:38.099Z,4.20
2018-04-11T18:43:05.548Z,2.63
2018-04-11T18:45:32.986Z,3.77
2018-04-11T18:48:01.186Z,2.67
2018-04-11T18:50:29.643Z,2.23
2018-04-11T18:52:57.874Z,6.50
2018-04-11T18:55:25.325Z,6.70
2018-04-11T18:57:52.758Z,2.03
2018-04-11T19:00:20.198Z,6.43
2018-04-11T19:02:48.436Z,4.20
2018-04-11T19:05:16.678Z,2.60
2018-04-11T19:07:44.198Z,4.30
2018-04-11T19:10:12.412Z,5.70
2018-04-11T19:12:39.852Z,5.83
2018-04-11T19:15:07.324Z,2.60
2018-04-11T19:17:35.300Z,6.67
2018-04-11T19:20:03.445Z,2.70
2018-04-11T19:22:31.910Z,3.20
2018-04-11T19:25:00.137Z,5.40
2018-04-11T19:27:27.644Z,5.07
2018-04-11T19:29:56.031Z,2.87
2018-04-11T19:32:24.296Z,4.93
2018-04-11T19:34:51.744Z,5.57
2018-04-11T19:37:19.217Z,5.00
2018-04-11T19:39:47.432Z,2.80
2018-04-11T19:42:14.889Z,4.60
2018-04-11T19:44:42.343Z,4.10
2018-04-11T19:47:09.778Z,8.00
2018-04-11T19:49:37.219Z,4.40
2018-04-11T19:52:05.431Z,2.60
2018-04-11T19:54:32.883Z,3.60
2018-04-11T19:57:00.325Z,3.57
2018-04-11T19:59:27.767Z,2.67
2018-04-11T20:01:55.983Z,3.00
2018-04-11T20:04:23.431Z,4.10
2018-04-11T20:06:51.467Z,6.27
2018-04-11T20:09:19.704Z,3.30
2018-04-11T20:11:47.139Z,3.70
2018-04-11T20:14:14.595Z,4.33
2018-04-11T20:16:42.119Z,2.77
2018-04-11T20:19:10.319Z,4.20
2018-04-11T20:21:37.753Z,3.20
2018-04-11T20:24:06.040Z,3.03
2018-04-11T20:26:33.482Z,5.63
2018-04-11T20:29:01.750Z,4.57
2018-04-11T20:31:29.967Z,3.20
2018-04-11T20:33:57.404Z,4.73
2018-04-11T20:36:24.844Z,3.17
2018-04-11T20:38:53.042Z,3.60
2018-04-11T20:41:20.487Z,2.80
2018-04-11T20:43:48.699Z,9.40
2018-04-11T20:46:16.144Z,3.40
2018-04-11T20:48:43.583Z,4.17
2018-04-11T20:51:11.028Z,3.40
2018-04-11T20:53:39.249Z,2.93
2018-04-11T20:56:06.695Z,3.17
2018-04-11T20:58:34.239Z,2.90
2018-04-11T21:01:01.672Z,8.27
2018-04-11T21:03:29.893Z,4.67
2018-04-11T21:05:57.429Z,3.50
2018-04-11T21:08:24.858Z,3.00
2018-04-11T21:10:53.076Z,3.87
2018-04-11T21:13:20.596Z,3.47
2018-04-11T21:15:48.811Z,2.77
2018-04-11T21:18:16.245Z,3.60
2018-04-11T21:20:43.684Z,5.97
2018-04-11T21:23:11.899Z,5.80
2018-04-11T21:25:39.391Z,4.70
2018-04-11T21:28:06.797Z,3.20
2018-04-11T21:30:34.241Z,3.23
2018-04-11T21:33:02.455Z,3.50
2018-04-11T21:35:29.905Z,4.23
2018-04-11T21:37:57.331Z,3.00
2018-04-11T21:40:25.718Z,2.80
2018-04-11T21:42:53.164Z,4.73
2018-04-11T21:45:21.380Z,4.33
2018-04-11T21:47:48.822Z,4.40
2018-04-11T21:50:16.261Z,5.50
2018-04-11T21:52:44.459Z,7.30
2018-04-11T21:55:11.928Z,3.13
2018-04-11T21:57:39.354Z,4.10
2018-04-11T22:00:06.795Z,5.67
2018-04-11T22:02:35.008Z,3.63
2018-04-11T22:05:02.463Z,5.10
2018-04-11T22:07:29.896Z,4.67
2018-04-11T22:09:57.348Z,2.83
2018-04-11T22:12:25.561Z,4.27
2018-04-11T22:14:53.009Z,3.60
2018-04-11T22:17:20.452Z,2.90
2018-04-11T22:19:47.903Z,3.03
2018-04-11T22:22:15.343Z,2.70
2018-04-11T22:24:44.549Z,3.67
2018-04-11T22:27:12.856Z,2.53
2018-04-11T22:29:40.291Z,3.57
2018-04-11T22:32:07.733Z,4.43
2018-04-11T22:34:35.951Z,3.70
2018-04-11T22:37:03.383Z,4.30
2018-04-11T22:39:30.823Z,2.67
2018-04-11T22:41:59.033Z,5.23
2018-04-11T22:44:26.485Z,4.20
2018-04-11T22:46:53.919Z,3.43
2018-04-11T22:49:22.166Z,8.60
2018-04-11T22:51:49.607Z,7.20
2018-04-11T22:54:17.161Z,6.50
2018-04-11T22:56:44.597Z,5.17
2018-04-11T22:59:12.047Z,4.30
2018-04-11T23:01:39.491Z,3.57
2018-04-11T23:04:06.935Z,6.07
2018-04-11T23:06:35.148Z,7.33
2018-04-11T23:09:02.583Z,4.23
2018-04-11T23:11:30.032Z,4.30
2018-04-11T23:13:57.470Z,4.07
2018-04-11T23:16:25.683Z,5.00
2018-04-11T23:18:53.124Z,5.77
2018-04-11T23:21:20.571Z,6.80
2018-04-11T23:23:48.839Z,5.20
2018-04-11T23:26:17.052Z,6.80
2018-04-11T23:28:44.489Z,5.90
2018-04-11T23:31:11.930Z,5.80
2018-04-11T23:33:40.137Z,7.10
2018-04-11T23:36:07.582Z,6.60
2018-04-11T23:38:35.018Z,7.03
2018-04-11T23:41:03.233Z,5.53
2018-04-11T23:43:30.671Z,6.87
2018-04-11T23:45:58.120Z,6.60
2018-04-11T23:48:26.321Z,6.23
2018-04-11T23:50:53.762Z,5.87
2018-04-11T23:53:21.209Z,8.03
2018-04-11T23:55:49.408Z,9.83
2018-04-11T23:58:16.861Z,8.30
